createdAt,value
2023-04-08T00:01:59.257Z,17.83
2023-04-08T00:04:26.430Z,17.20
2023-04-08T00:06:53.654Z,18.30
2023-04-08T00:09:20.968Z,17.27
2023-04-08T00:11:48.085Z,18.10
2023-04-08T00:14:15.725Z,18.52
2023-04-08T00:16:42.850Z,17.50
2023-04-08T00:19:10.890Z,18.55
2023-04-08T00:21:37.962Z,18.83
2023-04-08T00:24:05.593Z,17.60
2023-04-08T00:26:32.733Z,18.30
2023-04-08T00:28:59.869Z,17.52
2023-04-08T00:31:27.217Z,16.65
2023-04-08T00:33:54.410Z,17.42
2023-04-08T00:36:21.494Z,16.67
2023-04-08T00:38:48.903Z,17.77
2023-04-08T00:41:16.422Z,17.10
2023-04-08T00:43:43.515Z,16.60
2023-04-08T00:46:10.793Z,17.30
2023-04-08T00:48:37.977Z,16.42
2023-04-08T00:51:05.524Z,15.45
2023-04-08T00:53:32.677Z,16.77
2023-04-08T00:56:01.310Z,15.95
2023-04-08T00:58:29.360Z,16.08
2023-04-08T01:01:02.306Z,16.50
2023-04-08T01:03:32.306Z,16.45
2023-04-08T01:06:21.021Z,17.17
2023-04-08T01:08:49.150Z,16.83
2023-04-08T01:11:16.677Z,17.33
2023-04-08T01:13:45.238Z,16.55
2023-04-08T01:16:14.154Z,17.10
2023-04-08T01:18:42.805Z,17.08
2023-04-08T01:21:10.779Z,17.65
2023-04-08T01:23:42.114Z,17.63
2023-04-08T01:26:11.105Z,17.90
2023-04-08T01:28:39.113Z,17.75
2023-04-08T01:31:06.948Z,19.48
2023-04-08T01:33:34.768Z,18.65
2023-04-08T01:36:02.277Z,16.98
2023-04-08T01:38:30.051Z,18.85
2023-04-08T01:40:57.400Z,18.42
2023-04-08T01:43:25.404Z,18.55
2023-04-08T01:45:58.046Z,18.45
2023-04-08T01:50:53.948Z,18.70
2023-04-08T01:53:21.128Z,19.85
2023-04-08T01:55:49.413Z,20.00
2023-04-08T01:58:19.349Z,20.48
2023-04-08T02:00:47.288Z,20.45
2023-04-08T02:03:15.564Z,20.52
2023-04-08T02:05:42.920Z,19.90
2023-04-08T02:08:10.085Z,20.52
2023-04-08T02:10:37.186Z,20.50
2023-04-08T02:13:04.355Z,19.38
2023-04-08T02:15:35.010Z,20.27
2023-04-08T02:18:08.181Z,20.35
2023-04-08T02:20:39.956Z,18.58
2023-04-08T02:23:09.908Z,18.45
2023-04-08T02:25:39.479Z,18.98
2023-04-08T02:28:07.442Z,19.90
2023-04-08T02:30:36.413Z,17.83
2023-04-08T02:33:07.319Z,18.90
2023-04-08T02:35:34.866Z,17.23
2023-04-08T02:38:02.041Z,18.85
2023-04-08T02:40:30.457Z,17.10
2023-04-08T02:42:57.999Z,17.70
2023-04-08T02:45:29.122Z,16.42
2023-04-08T02:47:56.232Z,16.90
2023-04-08T02:50:23.420Z,17.20
2023-04-08T02:52:50.622Z,16.67
2023-04-08T02:55:17.718Z,15.80
2023-04-08T02:57:44.904Z,16.25
2023-04-08T03:00:12.378Z,15.75
2023-04-08T03:02:39.621Z,14.95
2023-04-08T03:05:07.231Z,14.23
2023-04-08T03:07:34.551Z,15.60
2023-04-08T03:10:01.714Z,13.95
2023-04-08T03:12:28.866Z,14.57
2023-04-08T03:14:55.988Z,15.05
2023-04-08T03:17:23.268Z,14.50
2023-04-08T03:19:50.412Z,14.60
2023-04-08T03:22:17.644Z,14.70
2023-04-08T03:24:44.757Z,14.38
2023-04-08T03:27:12.723Z,17.00
2023-04-08T03:29:39.989Z,16.60
2023-04-08T03:32:07.393Z,16.30
2023-04-08T03:34:35.566Z,18.02
2023-04-08T03:37:02.951Z,18.70
2023-04-08T03:39:30.575Z,15.73
2023-04-08T03:41:59.885Z,17.20
2023-04-08T03:44:27.355Z,17.40
2023-04-08T03:46:54.471Z,17.40
2023-04-08T03:49:21.779Z,19.27
2023-04-08T03:51:48.858Z,18.38
2023-04-08T03:54:15.982Z,18.92
2023-04-08T03:56:43.083Z,19.77
2023-04-08T03:59:10.241Z,20.60
2023-04-08T04:01:37.346Z,20.63
2023-04-08T04:04:04.785Z,20.25
2023-04-08T04:06:32.250Z,21.63
2023-04-08T04:08:59.471Z,19.55
2023-04-08T04:11:27.210Z,20.48
2023-04-08T04:13:54.376Z,21.15
2023-04-08T04:16:21.600Z,21.40
2023-04-08T04:18:48.954Z,20.77
2023-04-08T04:21:16.533Z,21.02
2023-04-08T04:23:43.757Z,21.27
2023-04-08T04:26:11.144Z,21.52
2023-04-08T04:28:38.705Z,22.60
2023-04-08T04:31:05.995Z,23.63
2023-04-08T04:33:33.118Z,22.13
2023-04-08T04:36:00.415Z,23.95
2023-04-08T04:38:27.555Z,24.50
2023-04-08T04:40:54.741Z,25.25
2023-04-08T04:43:21.910Z,24.45
2023-04-08T04:45:49.002Z,24.75
2023-04-08T04:48:16.220Z,23.70
2023-04-08T04:50:43.379Z,25.08
2023-04-08T04:53:10.695Z,25.60
2023-04-08T04:55:39.263Z,24.50
2023-04-08T04:58:06.733Z,24.58
2023-04-08T05:00:34.003Z,25.10
2023-04-08T05:03:01.222Z,24.13
2023-04-08T05:05:28.498Z,24.95
2023-04-08T05:07:55.749Z,23.98
2023-04-08T05:10:22.854Z,22.20
2023-04-08T05:12:49.957Z,23.15
2023-04-08T05:15:17.125Z,24.40
2023-04-08T05:17:44.223Z,25.08
2023-04-08T05:20:11.592Z,24.55
2023-04-08T05:22:38.706Z,22.17
2023-04-08T05:25:06.464Z,20.58
2023-04-08T05:27:33.628Z,22.15
2023-04-08T05:30:00.899Z,20.98
2023-04-08T05:32:29.687Z,21.33
2023-04-08T05:34:56.805Z,19.50
2023-04-08T05:37:23.924Z,19.42
2023-04-08T05:39:51.296Z,18.85
2023-04-08T05:42:18.444Z,18.77
2023-04-08T05:44:45.612Z,19.13
2023-04-08T05:47:13.122Z,18.42
2023-04-08T05:49:40.231Z,18.13
2023-04-08T05:52:07.534Z,19.75
2023-04-08T05:54:34.624Z,18.13
2023-04-08T05:57:01.739Z,17.17
2023-04-08T05:59:28.869Z,16.70
2023-04-08T06:01:57.023Z,16.45
2023-04-08T06:04:24.571Z,16.27
2023-04-08T06:06:51.836Z,17.33
2023-04-08T06:09:18.980Z,19.63
2023-04-08T06:11:47.303Z,22.75
2023-04-08T06:14:14.479Z,18.50
2023-04-08T06:16:41.711Z,20.95
2023-04-08T06:19:08.820Z,19.67
2023-04-08T06:21:36.279Z,17.33
2023-04-08T06:24:03.366Z,15.50
2023-04-08T06:26:30.478Z,15.73
2023-04-08T06:28:57.594Z,18.77
2023-04-08T06:31:24.840Z,17.23
2023-04-08T06:33:52.412Z,17.00
2023-04-08T06:36:19.513Z,16.35
2023-04-08T06:38:46.600Z,17.63
2023-04-08T06:41:13.713Z,23.70
2023-04-08T06:43:40.979Z,19.08
2023-04-08T06:46:08.159Z,17.00
2023-04-08T06:48:35.376Z,16.13
2023-04-08T06:51:02.541Z,16.05
2023-04-08T06:53:30.722Z,15.77
2023-04-08T06:55:57.786Z,17.45
2023-04-08T06:58:24.992Z,16.35
2023-04-08T07:00:52.098Z,15.75
2023-04-08T07:03:19.310Z,15.38
2023-04-08T07:05:46.730Z,15.32
2023-04-08T07:08:13.794Z,14.38
2023-04-08T07:10:42.017Z,14.73
2023-04-08T07:13:09.328Z,13.82
2023-04-08T07:15:36.723Z,14.57
2023-04-08T07:18:04.784Z,14.70
2023-04-08T07:20:32.382Z,16.80
2023-04-08T07:22:59.620Z,13.90
2023-04-08T07:25:27.037Z,14.35
2023-04-08T07:27:54.306Z,14.13
2023-04-08T07:30:22.261Z,14.57
2023-04-08T07:32:49.485Z,14.13
2023-04-08T07:35:23.955Z,14.13
2023-04-08T07:37:51.538Z,14.98
2023-04-08T07:40:18.644Z,17.38
2023-04-08T07:42:45.804Z,14.13
2023-04-08T07:45:13.039Z,15.60
2023-04-08T07:47:40.656Z,15.60
2023-04-08T07:50:08.219Z,13.23
2023-04-08T07:52:35.467Z,14.50
2023-04-08T07:55:02.633Z,12.05
2023-04-08T07:57:29.811Z,13.80
2023-04-08T07:59:57.052Z,12.13
2023-04-08T08:02:24.333Z,12.57
2023-04-08T08:04:51.541Z,12.38
2023-04-08T08:07:18.724Z,11.38
2023-04-08T08:09:45.857Z,11.40
2023-04-08T08:12:12.969Z,11.05
2023-04-08T08:14:40.665Z,11.25
2023-04-08T08:17:07.878Z,11.43
2023-04-08T08:19:35.093Z,10.05
2023-04-08T08:22:02.209Z,11.40
2023-04-08T08:24:29.325Z,11.95
2023-04-08T08:26:56.705Z,11.07
2023-04-08T08:29:23.785Z,12.13
2023-04-08T08:31:50.979Z,12.85
2023-04-08T08:34:18.119Z,11.68
2023-04-08T08:36:45.201Z,12.32
2023-04-08T08:39:12.290Z,12.02
2023-04-08T08:41:39.427Z,11.85
2023-04-08T08:44:07.595Z,11.57
2023-04-08T08:46:35.129Z,10.48
2023-04-08T08:49:02.532Z,11.10
2023-04-08T08:51:30.483Z,11.15
2023-04-08T08:53:57.583Z,11.27
2023-04-08T08:56:24.738Z,10.50
2023-04-08T08:58:51.862Z,11.35
2023-04-08T09:01:38.593Z,10.52
2023-04-08T09:04:07.866Z,11.57
2023-04-08T09:06:35.372Z,10.88
2023-04-08T09:09:04.381Z,11.20
2023-04-08T09:11:31.468Z,10.85
2023-04-08T09:13:58.551Z,11.27
2023-04-08T09:16:25.813Z,11.07
2023-04-08T09:18:53.006Z,10.55
2023-04-08T09:21:23.743Z,11.27
2023-04-08T09:23:52.560Z,10.50
2023-04-08T09:26:22.196Z,10.82
2023-04-08T09:29:25.624Z,10.68
2023-04-08T09:31:57.583Z,10.95
2023-04-08T09:34:25.220Z,11.93
2023-04-08T09:36:52.949Z,10.88
2023-04-08T09:39:20.369Z,10.27
2023-04-08T09:41:51.085Z,9.32
2023-04-08T09:44:20.828Z,10.70
2023-04-08T09:46:51.581Z,10.35
2023-04-08T09:49:35.249Z,11.27
2023-04-08T09:52:16.056Z,9.88
2023-04-08T09:54:53.972Z,9.88
2023-04-08T09:57:39.836Z,10.00
2023-04-08T10:00:17.429Z,9.73
2023-04-08T10:02:57.269Z,9.25
2023-04-08T10:05:25.619Z,10.13
2023-04-08T10:07:53.631Z,9.68
2023-04-08T10:10:21.204Z,9.52
2023-04-08T10:12:49.284Z,10.82
2023-04-08T10:15:26.395Z,9.43
2023-04-08T10:17:57.649Z,9.50
2023-04-08T10:20:33.764Z,8.77
2023-04-08T10:23:10.771Z,8.85
2023-04-08T10:25:38.693Z,8.75
2023-04-08T10:28:11.909Z,8.43
2023-04-08T10:30:39.172Z,8.50
2023-04-08T10:33:13.407Z,9.27
2023-04-08T10:35:46.741Z,7.85
2023-04-08T10:38:14.741Z,8.82
2023-04-08T10:40:42.830Z,7.97
2023-04-08T10:43:10.816Z,8.43
2023-04-08T10:45:38.274Z,9.07
2023-04-08T10:48:14.402Z,8.05
2023-04-08T10:50:41.794Z,8.27
2023-04-08T10:53:09.168Z,8.88
2023-04-08T10:55:36.363Z,8.57
2023-04-08T10:58:11.280Z,8.75
2023-04-08T11:00:39.263Z,8.50
2023-04-08T11:03:11.654Z,8.32
2023-04-08T11:05:40.258Z,8.10
2023-04-08T11:08:07.855Z,8.30
2023-04-08T11:10:38.630Z,8.05
2023-04-08T11:13:07.967Z,8.57
2023-04-08T11:15:36.360Z,8.32
2023-04-08T11:18:04.514Z,9.15
2023-04-08T11:20:34.503Z,9.30
2023-04-08T11:23:01.570Z,9.02
2023-04-08T11:25:29.334Z,8.13
2023-04-08T11:27:56.574Z,8.82
2023-04-08T11:30:24.190Z,7.97
2023-04-08T11:32:52.227Z,9.23
2023-04-08T11:35:19.513Z,8.73
2023-04-08T11:37:47.742Z,8.90
2023-04-08T11:40:20.419Z,8.90
2023-04-08T11:42:47.638Z,7.93
2023-04-08T11:45:19.541Z,6.57
2023-04-08T11:47:47.250Z,6.10
2023-04-08T11:50:23.140Z,6.63
2023-04-08T11:52:51.048Z,7.10
2023-04-08T11:55:31.165Z,5.35
2023-04-08T11:58:02.398Z,5.72
2023-04-08T12:00:29.513Z,5.45
2023-04-08T12:02:56.649Z,5.47
2023-04-08T12:05:23.790Z,5.70
2023-04-08T12:07:51.051Z,5.70
2023-04-08T12:10:18.160Z,6.03
2023-04-08T12:12:45.329Z,6.55
2023-04-08T12:15:12.681Z,6.70
2023-04-08T12:17:39.891Z,6.90
2023-04-08T12:20:07.689Z,7.20
2023-04-08T12:22:34.923Z,7.05
2023-04-08T12:25:03.653Z,6.63
2023-04-08T12:27:33.375Z,7.35
2023-04-08T12:30:01.001Z,6.75
2023-04-08T12:32:28.195Z,7.20
2023-04-08T12:34:55.986Z,7.53
2023-04-08T12:37:23.115Z,7.60
2023-04-08T12:39:50.287Z,8.35
2023-04-08T12:42:17.488Z,7.60
2023-04-08T12:44:44.640Z,6.82
2023-04-08T12:47:11.954Z,6.93
2023-04-08T12:52:09.205Z,6.63
2023-04-08T12:54:36.388Z,6.93
2023-04-08T12:57:04.584Z,6.53
2023-04-08T12:59:33.483Z,6.90
2023-04-08T13:02:00.634Z,7.10
2023-04-08T13:04:27.757Z,6.70
2023-04-08T13:06:55.529Z,5.93
2023-04-08T13:09:23.003Z,6.53
2023-04-08T13:11:50.317Z,7.10
2023-04-08T13:14:17.572Z,6.18
2023-04-08T13:16:44.776Z,6.13
2023-04-08T13:19:11.983Z,7.53
2023-04-08T13:21:39.095Z,6.63
2023-04-08T13:24:06.575Z,6.43
2023-04-08T13:26:33.708Z,6.32
2023-04-08T13:29:01.308Z,5.75
2023-04-08T13:31:28.675Z,6.10
2023-04-08T13:33:57.996Z,6.03
2023-04-08T13:36:26.780Z,6.35
2023-04-08T13:38:54.527Z,5.68
2023-04-08T13:41:21.899Z,5.75
2023-04-08T13:43:50.414Z,5.53
2023-04-08T13:46:18.112Z,6.20
2023-04-08T13:48:46.269Z,5.28
2023-04-08T13:51:13.558Z,4.88
2023-04-08T13:53:40.755Z,5.88
2023-04-08T13:56:08.053Z,5.30
2023-04-08T13:58:35.236Z,5.15
2023-04-08T14:01:02.775Z,4.75
2023-04-08T14:03:30.020Z,4.45
2023-04-08T14:06:01.094Z,5.03
2023-04-08T14:08:28.938Z,5.20
2023-04-08T14:10:59.291Z,5.47
2023-04-08T14:13:26.500Z,5.70
2023-04-08T14:15:54.994Z,6.05
2023-04-08T14:18:22.219Z,5.85
2023-04-08T14:20:49.363Z,5.18
2023-04-08T14:23:16.903Z,5.88
2023-04-08T14:25:44.123Z,6.28
2023-04-08T14:28:11.480Z,5.88
2023-04-08T14:30:38.617Z,5.50
2023-04-08T14:33:06.181Z,5.80
2023-04-08T14:35:33.475Z,5.72
2023-04-08T14:38:01.232Z,6.00
2023-04-08T14:40:28.432Z,6.72
2023-04-08T14:42:55.550Z,5.88
2023-04-08T14:45:22.692Z,7.65
2023-04-08T14:47:49.911Z,41.47
2023-04-08T14:50:17.331Z,6.80
2023-04-08T14:52:45.313Z,5.63
2023-04-08T14:55:12.719Z,5.65
2023-04-08T14:57:39.869Z,6.07
2023-04-08T15:00:07.705Z,6.70
2023-04-08T15:02:35.045Z,6.22
2023-04-08T15:05:02.181Z,6.47
2023-04-08T15:07:29.294Z,7.50
2023-04-08T15:09:56.889Z,6.88
2023-04-08T15:12:24.453Z,6.45
2023-04-08T15:14:51.574Z,6.65
2023-04-08T15:17:18.870Z,6.63
2023-04-08T15:19:47.000Z,5.75
2023-04-08T15:22:14.164Z,6.10
2023-04-08T15:24:42.548Z,6.93
2023-04-08T15:27:09.835Z,6.53
2023-04-08T15:29:37.041Z,6.15
2023-04-08T15:32:04.179Z,7.38
2023-04-08T15:34:31.279Z,7.38
2023-04-08T15:36:58.705Z,7.75
2023-04-08T15:39:25.964Z,6.85
2023-04-08T15:41:53.279Z,6.15
2023-04-08T15:44:20.529Z,6.75
2023-04-08T15:46:47.651Z,7.10
2023-04-08T15:49:15.490Z,7.82
2023-04-08T15:51:44.518Z,7.85
2023-04-08T15:54:11.859Z,7.63
2023-04-08T15:56:39.017Z,8.32
2023-04-08T15:59:06.205Z,6.53
2023-04-08T16:01:33.560Z,7.50
2023-04-08T16:04:00.985Z,9.73
2023-04-08T16:06:28.319Z,9.93
2023-04-08T16:08:56.760Z,9.15
2023-04-08T16:11:25.196Z,9.45
2023-04-08T16:13:52.333Z,10.40
2023-04-08T16:16:19.868Z,13.60
2023-04-08T16:18:47.629Z,7.78
2023-04-08T16:21:14.895Z,8.45
2023-04-08T16:23:42.072Z,8.32
2023-04-08T16:26:09.285Z,8.75
2023-04-08T16:28:40.036Z,8.73
2023-04-08T16:31:07.617Z,8.73
2023-04-08T16:33:34.796Z,8.55
2023-04-08T16:36:04.116Z,8.75
2023-04-08T16:38:31.330Z,9.15
2023-04-08T16:40:58.892Z,9.40
2023-04-08T16:43:26.442Z,9.02
2023-04-08T16:45:54.065Z,9.77
2023-04-08T16:48:22.304Z,8.20
2023-04-08T16:50:49.498Z,9.57
2023-04-08T16:53:16.638Z,9.85
2023-04-08T16:55:43.763Z,9.18
2023-04-08T16:58:10.952Z,9.98
2023-04-08T17:00:39.400Z,9.20
2023-04-08T17:03:06.697Z,9.80
2023-04-08T17:05:33.908Z,9.77
2023-04-08T17:08:01.604Z,10.00
2023-04-08T17:10:28.888Z,9.35
2023-04-08T17:12:57.740Z,9.90
2023-04-08T17:15:25.025Z,9.07
2023-04-08T17:17:52.136Z,9.07
2023-04-08T17:20:19.458Z,9.75
2023-04-08T17:22:46.872Z,10.25
2023-04-08T17:25:14.044Z,10.27
2023-04-08T17:27:41.311Z,10.80
2023-04-08T17:30:11.144Z,11.40
2023-04-08T17:32:38.711Z,10.27
2023-04-08T17:35:06.261Z,9.93
2023-04-08T17:37:33.387Z,9.85
2023-04-08T17:40:00.550Z,9.55
2023-04-08T17:42:27.745Z,9.77
2023-04-08T17:44:55.985Z,9.93
2023-04-08T17:47:23.151Z,9.25
2023-04-08T17:49:50.356Z,11.50
2023-04-08T17:52:17.637Z,10.93
2023-04-08T17:54:44.747Z,11.10
2023-04-08T17:57:12.935Z,11.65
2023-04-08T17:59:40.052Z,10.38
2023-04-08T18:02:07.392Z,10.65
2023-04-08T18:04:34.588Z,10.40
2023-04-08T18:07:04.514Z,10.05
2023-04-08T18:09:32.009Z,10.43
2023-04-08T18:11:59.179Z,11.13
2023-04-08T18:14:26.338Z,10.90
2023-04-08T18:16:53.489Z,11.85
2023-04-08T18:19:20.683Z,11.27
2023-04-08T18:21:47.864Z,11.73
2023-04-08T18:24:14.940Z,11.15
2023-04-08T18:26:43.795Z,10.30
2023-04-08T18:29:11.229Z,10.80
2023-04-08T18:31:38.393Z,12.43
2023-04-08T18:34:05.535Z,12.15
2023-04-08T18:36:33.024Z,11.45
2023-04-08T18:39:00.237Z,11.95
2023-04-08T18:41:28.000Z,12.95
2023-04-08T18:43:55.576Z,13.95
2023-04-08T18:46:24.340Z,13.55
2023-04-08T18:48:51.520Z,14.27
2023-04-08T18:51:18.682Z,15.95
2023-04-08T18:53:45.886Z,13.68
2023-04-08T18:56:19.622Z,14.93
2023-04-08T18:58:47.118Z,16.45
2023-04-08T19:01:14.868Z,17.63
2023-04-08T19:03:43.276Z,18.90
2023-04-08T19:06:11.491Z,14.98
2023-04-08T19:08:38.643Z,14.23
2023-04-08T19:11:06.356Z,14.90
2023-04-08T19:13:33.753Z,13.20
2023-04-08T19:16:00.973Z,13.15
2023-04-08T19:18:28.192Z,12.32
2023-04-08T19:20:55.275Z,12.35
2023-04-08T19:23:22.434Z,12.15
2023-04-08T19:25:49.536Z,12.70
2023-04-08T19:28:16.620Z,13.35
2023-04-08T19:30:43.771Z,13.23
2023-04-08T19:33:10.946Z,14.23
2023-04-08T19:35:38.671Z,13.43
2023-04-08T19:38:08.060Z,12.93
2023-04-08T19:40:35.357Z,13.23
2023-04-08T19:43:02.552Z,13.77
2023-04-08T19:45:29.610Z,12.60
2023-04-08T19:47:57.072Z,11.90
2023-04-08T19:50:25.421Z,12.02
2023-04-08T19:52:52.608Z,11.15
2023-04-08T19:55:19.819Z,11.43
2023-04-08T19:57:47.466Z,10.40
2023-04-08T20:00:14.667Z,10.85
2023-04-08T20:02:42.086Z,11.35
2023-04-08T20:05:14.778Z,10.43
2023-04-08T20:07:42.025Z,10.73
2023-04-08T20:10:09.541Z,10.48
2023-04-08T20:12:36.713Z,10.63
2023-04-08T20:15:03.854Z,10.95
2023-04-08T20:17:31.407Z,11.10
2023-04-08T20:19:58.559Z,11.73
2023-04-08T20:22:25.705Z,11.90
2023-04-08T20:24:52.928Z,10.90
2023-04-08T20:27:20.076Z,11.30
2023-04-08T20:29:47.473Z,12.48
2023-04-08T20:32:14.570Z,13.35
2023-04-08T20:34:41.799Z,11.85
2023-04-08T20:37:08.878Z,11.43
2023-04-08T20:39:36.161Z,11.18
2023-04-08T20:42:05.324Z,11.45
2023-04-08T20:44:32.448Z,11.18
2023-04-08T20:46:59.620Z,11.48
2023-04-08T20:49:26.749Z,11.77
2023-04-08T20:51:53.864Z,11.77
2023-04-08T20:54:21.056Z,10.40
2023-04-08T20:56:48.170Z,11.02
2023-04-08T20:59:15.492Z,10.15
2023-04-08T21:01:42.756Z,10.20
2023-04-08T21:04:09.871Z,9.95
2023-04-08T21:06:37.593Z,10.02
2023-04-08T21:09:04.783Z,10.45
2023-04-08T21:11:31.896Z,10.48
2023-04-08T21:13:59.000Z,10.48
2023-04-08T21:16:26.114Z,10.90
2023-04-08T21:18:53.488Z,10.68
2023-04-08T21:21:20.767Z,11.77
2023-04-08T21:23:47.968Z,11.43
2023-04-08T21:26:15.288Z,11.77
2023-04-08T21:28:43.847Z,11.25
2023-04-08T21:31:11.762Z,10.95
2023-04-08T21:33:39.300Z,10.75
2023-04-08T21:36:10.036Z,10.82
2023-04-08T21:38:37.162Z,11.80
2023-04-08T21:41:04.270Z,10.38
2023-04-08T21:43:31.525Z,10.82
2023-04-08T21:45:58.661Z,11.43
2023-04-08T21:48:25.940Z,11.70
2023-04-08T21:50:53.414Z,12.15
2023-04-08T21:53:22.149Z,12.57
2023-04-08T21:55:49.289Z,11.57
2023-04-08T21:58:17.219Z,11.10
2023-04-08T22:00:44.791Z,12.27
2023-04-08T22:03:12.239Z,11.02
2023-04-08T22:05:39.613Z,12.40
2023-04-08T22:08:06.748Z,11.73
2023-04-08T22:10:33.875Z,10.90
2023-04-08T22:13:01.328Z,12.05
2023-04-08T22:15:28.553Z,11.27
2023-04-08T22:17:56.025Z,11.57
2023-04-08T22:20:23.252Z,11.65
2023-04-08T22:22:50.360Z,12.70
2023-04-08T22:25:17.522Z,12.38
2023-04-08T22:27:44.662Z,11.75
2023-04-08T22:30:11.974Z,11.95
2023-04-08T22:32:39.197Z,12.07
2023-04-08T22:35:06.563Z,12.38
2023-04-08T22:37:33.701Z,11.07
2023-04-08T22:40:01.420Z,11.80
2023-04-08T22:42:28.581Z,12.52
2023-04-08T22:44:55.816Z,13.48
2023-04-08T22:47:22.982Z,12.20
2023-04-08T22:49:50.386Z,12.23
2023-04-08T22:52:17.582Z,11.27
2023-04-08T22:54:44.682Z,12.10
2023-04-08T22:57:11.832Z,11.88
2023-04-08T22:59:39.003Z,12.25
2023-04-08T23:02:06.239Z,12.48
2023-04-08T23:04:33.379Z,11.57
2023-04-08T23:07:00.601Z,12.40
2023-04-08T23:09:28.262Z,12.07
2023-04-08T23:11:55.936Z,11.95
2023-04-08T23:14:22.997Z,12.00
2023-04-08T23:16:50.271Z,12.35
2023-04-08T23:19:17.488Z,11.50
2023-04-08T23:21:44.621Z,13.05
2023-04-08T23:24:11.683Z,12.00
2023-04-08T23:26:38.772Z,10.95
2023-04-08T23:29:05.875Z,12.18
2023-04-08T23:31:33.052Z,11.98
2023-04-08T23:34:00.308Z,13.13
2023-04-08T23:36:27.625Z,12.32
2023-04-08T23:38:54.973Z,13.20
2023-04-08T23:41:22.176Z,11.98
2023-04-08T23:43:49.350Z,12.50
2023-04-08T23:46:16.759Z,12.60
2023-04-08T23:48:43.926Z,12.55
2023-04-08T23:51:11.851Z,12.50
2023-04-08T23:53:38.970Z,12.95
2023-04-08T23:56:06.579Z,12.68
2023-04-08T23:58:33.912Z,12.55
